createdAt,value
2023-01-18T00:00:34.514Z,23.11
2023-01-18T00:01:34.455Z,23.12
2023-01-18T00:02:34.426Z,23.12
2023-01-18T00:03:34.438Z,23.12
2023-01-18T00:04:34.510Z,23.12
2023-01-18T00:05:34.406Z,23.11
2023-01-18T00:06:34.400Z,23.12
2023-01-18T00:07:34.395Z,23.12
2023-01-18T00:08:34.397Z,23.12
2023-01-18T00:09:34.403Z,23.12
2023-01-18T00:10:34.381Z,23.12
2023-01-18T00:11:34.383Z,23.12
2023-01-18T00:12:34.379Z,23.12
2023-01-18T00:13:34.367Z,23.12
2023-01-18T00:14:34.356Z,23.12
2023-01-18T00:15:34.353Z,23.13
2023-01-18T00:16:34.374Z,23.12
2023-01-18T00:17:34.347Z,23.12
2023-01-18T00:18:34.339Z,23.12
2023-01-18T00:19:34.348Z,23.12
2023-01-18T00:20:34.365Z,23.13
2023-01-18T00:21:34.335Z,23.11
2023-01-18T00:22:34.349Z,23.12
2023-01-18T00:23:34.338Z,23.12
2023-01-18T00:24:34.357Z,23.12
2023-01-18T00:25:34.339Z,23.12
2023-01-18T00:26:34.348Z,23.12
2023-01-18T00:27:34.326Z,23.12
2023-01-18T00:28:34.324Z,23.13
2023-01-18T00:29:34.314Z,23.12
2023-01-18T00:30:34.302Z,23.12
2023-01-18T00:31:34.334Z,23.12
2023-01-18T00:32:34.330Z,23.12
2023-01-18T00:33:34.301Z,23.12
2023-01-18T00:34:34.302Z,23.12
2023-01-18T00:35:34.286Z,23.13
2023-01-18T00:36:34.301Z,23.12
2023-01-18T00:37:34.304Z,23.13
2023-01-18T00:38:34.286Z,23.12
2023-01-18T00:39:34.299Z,23.12
2023-01-18T00:40:34.289Z,23.12
2023-01-18T00:41:34.283Z,23.12
2023-01-18T00:42:34.276Z,23.12
2023-01-18T00:43:34.283Z,23.13
2023-01-18T00:44:34.271Z,23.12
2023-01-18T00:45:34.389Z,23.12
2023-01-18T00:46:34.291Z,23.12
2023-01-18T00:47:34.302Z,23.11
2023-01-18T00:48:34.295Z,23.12
2023-01-18T00:49:34.273Z,23.12
2023-01-18T00:50:34.276Z,23.13
2023-01-18T00:51:34.275Z,23.12
2023-01-18T00:52:34.266Z,23.11
2023-01-18T00:53:34.273Z,23.12
2023-01-18T00:54:34.269Z,23.12
2023-01-18T00:55:34.288Z,23.13
2023-01-18T00:56:34.251Z,23.12
2023-01-18T00:57:34.252Z,23.13
2023-01-18T00:58:34.264Z,23.11
2023-01-18T00:59:34.253Z,23.12
2023-01-18T01:00:34.260Z,23.12
2023-01-18T01:01:34.453Z,23.11
2023-01-18T01:02:34.336Z,23.13
2023-01-18T01:03:34.254Z,23.12
2023-01-18T01:04:34.241Z,23.12
2023-01-18T01:05:34.233Z,23.13
2023-01-18T01:06:34.223Z,23.13
2023-01-18T01:07:34.218Z,23.12
2023-01-18T01:08:34.228Z,23.12
2023-01-18T01:09:34.230Z,23.13
2023-01-18T01:10:34.214Z,23.12
2023-01-18T01:11:34.206Z,23.13
2023-01-18T01:12:34.203Z,23.12
2023-01-18T01:13:34.207Z,23.12
2023-01-18T01:14:34.198Z,23.12
2023-01-18T01:15:34.180Z,23.13
2023-01-18T01:16:34.199Z,23.13
2023-01-18T01:17:34.179Z,23.13
2023-01-18T01:18:34.194Z,23.13
2023-01-18T01:19:34.173Z,23.12
2023-01-18T01:20:34.174Z,23.13
2023-01-18T01:21:34.175Z,23.13
2023-01-18T01:22:34.173Z,23.12
2023-01-18T01:23:34.189Z,23.12
2023-01-18T01:24:34.183Z,23.12
2023-01-18T01:25:34.189Z,23.12
2023-01-18T01:26:34.167Z,23.13
2023-01-18T01:27:34.166Z,23.12
2023-01-18T01:28:34.157Z,23.12
2023-01-18T01:29:34.163Z,23.13
2023-01-18T01:30:34.180Z,23.12
2023-01-18T01:31:34.179Z,23.12
2023-01-18T01:32:34.172Z,23.12
2023-01-18T01:33:34.178Z,23.12
2023-01-18T01:34:34.168Z,23.12
2023-01-18T01:35:34.161Z,23.13
2023-01-18T01:36:34.170Z,23.12
2023-01-18T01:37:34.172Z,23.12
2023-01-18T01:38:34.177Z,23.13
2023-01-18T01:39:34.165Z,23.12
2023-01-18T01:40:34.153Z,23.12
2023-01-18T01:41:34.167Z,23.13
2023-01-18T01:42:34.152Z,23.13
2023-01-18T01:43:34.144Z,23.12
2023-01-18T01:44:34.381Z,23.12
2023-01-18T01:45:34.177Z,23.13
2023-01-18T01:46:34.165Z,23.12
2023-01-18T01:47:34.189Z,23.12
2023-01-18T01:48:34.174Z,23.12
2023-01-18T01:49:34.185Z,23.12
2023-01-18T01:50:34.193Z,23.12
2023-01-18T01:51:34.166Z,23.12
2023-01-18T01:52:34.176Z,23.12
2023-01-18T01:53:34.167Z,23.12
2023-01-18T01:54:34.188Z,23.12
2023-01-18T01:55:34.171Z,23.12
2023-01-18T01:56:34.184Z,23.12
2023-01-18T01:57:34.195Z,23.12
2023-01-18T01:58:34.174Z,23.12
2023-01-18T01:59:34.192Z,23.12
2023-01-18T02:00:34.183Z,23.11
2023-01-18T02:01:34.297Z,23.12
2023-01-18T02:02:34.253Z,23.12
2023-01-18T02:03:34.216Z,23.12
2023-01-18T02:04:34.198Z,23.12
2023-01-18T02:05:34.202Z,23.12
2023-01-18T02:06:34.184Z,23.12
2023-01-18T02:07:34.208Z,23.12
2023-01-18T02:08:34.198Z,23.12
2023-01-18T02:09:34.219Z,23.12
2023-01-18T02:10:34.178Z,23.12
2023-01-18T02:11:34.197Z,23.12
2023-01-18T02:12:34.187Z,23.12
2023-01-18T02:13:34.202Z,23.12
2023-01-18T02:14:34.195Z,23.12
2023-01-18T02:15:34.192Z,23.12
2023-01-18T02:16:34.235Z,23.12
2023-01-18T02:17:34.195Z,23.12
2023-01-18T02:18:34.183Z,23.13
2023-01-18T02:19:34.195Z,23.12
2023-01-18T02:20:34.184Z,23.13
2023-01-18T02:21:34.181Z,23.13
2023-01-18T02:22:34.171Z,23.12
2023-01-18T02:23:34.184Z,23.12
2023-01-18T02:24:34.181Z,23.13
2023-01-18T02:25:34.184Z,23.13
2023-01-18T02:26:35.001Z,23.12
2023-01-18T02:27:34.183Z,23.12
2023-01-18T02:28:34.182Z,23.13
2023-01-18T02:29:34.191Z,23.13
2023-01-18T02:30:35.016Z,23.13
2023-01-18T02:31:34.191Z,23.13
2023-01-18T02:32:34.181Z,23.13
2023-01-18T02:33:34.191Z,23.12
2023-01-18T02:34:34.206Z,23.13
2023-01-18T02:35:34.201Z,23.13
2023-01-18T02:36:34.195Z,23.13
2023-01-18T02:37:34.199Z,23.13
2023-01-18T02:38:34.188Z,23.13
2023-01-18T02:39:34.189Z,23.12
2023-01-18T02:40:34.192Z,23.13
2023-01-18T02:41:34.172Z,23.13
2023-01-18T02:42:34.174Z,23.12
2023-01-18T02:43:34.176Z,23.13
2023-01-18T02:44:34.174Z,23.12
2023-01-18T02:45:35.901Z,23.13
2023-01-18T02:46:34.341Z,23.13
2023-01-18T02:47:34.170Z,23.13
2023-01-18T02:48:34.173Z,23.13
2023-01-18T02:49:34.184Z,23.13
2023-01-18T02:50:34.196Z,23.14
2023-01-18T02:51:34.204Z,23.13
2023-01-18T02:52:34.191Z,23.13
2023-01-18T02:53:34.200Z,23.14
2023-01-18T02:54:34.183Z,23.14
2023-01-18T02:55:34.194Z,23.13
2023-01-18T02:56:34.197Z,23.13
2023-01-18T02:57:34.196Z,23.13
2023-01-18T02:58:34.204Z,23.13
2023-01-18T02:59:34.192Z,23.14
2023-01-18T03:00:34.223Z,23.12
2023-01-18T03:01:34.355Z,23.13
2023-01-18T03:02:34.231Z,23.13
2023-01-18T03:03:34.212Z,23.13
2023-01-18T03:04:34.216Z,23.13
2023-01-18T03:05:34.207Z,23.14
2023-01-18T03:06:34.208Z,23.13
2023-01-18T03:07:34.217Z,23.13
2023-01-18T03:08:34.205Z,23.13
2023-01-18T03:09:34.217Z,23.13
2023-01-18T03:10:34.217Z,23.13
2023-01-18T03:11:34.224Z,23.13
2023-01-18T03:12:34.224Z,23.14
2023-01-18T03:13:34.210Z,23.14
2023-01-18T03:14:34.202Z,23.14
2023-01-18T03:15:34.305Z,23.13
2023-01-18T03:16:34.202Z,23.14
2023-01-18T03:17:34.194Z,23.13
2023-01-18T03:18:34.195Z,23.13
2023-01-18T03:19:34.207Z,23.14
2023-01-18T03:20:34.206Z,23.13
2023-01-18T03:21:34.209Z,23.14
2023-01-18T03:22:34.198Z,23.14
2023-01-18T03:23:34.204Z,23.13
2023-01-18T03:24:34.200Z,23.14
2023-01-18T03:25:34.213Z,23.14
2023-01-18T03:26:34.228Z,23.14
2023-01-18T03:27:34.207Z,23.15
2023-01-18T03:28:34.200Z,23.14
2023-01-18T03:29:34.207Z,23.14
2023-01-18T03:30:34.189Z,23.14
2023-01-18T03:31:34.189Z,23.14
2023-01-18T03:32:34.185Z,23.14
2023-01-18T03:33:34.191Z,23.13
2023-01-18T03:34:34.212Z,23.14
2023-01-18T03:55:34.193Z,23.14
2023-01-18T03:56:34.199Z,23.15
2023-01-18T03:57:34.199Z,23.14
2023-01-18T03:58:34.202Z,23.15
2023-01-18T03:59:34.212Z,23.15
2023-01-18T04:00:34.195Z,23.14
2023-01-18T04:01:34.287Z,23.14
2023-01-18T04:02:34.319Z,23.14
2023-01-18T04:03:34.215Z,23.14
2023-01-18T04:04:34.254Z,23.15
2023-01-18T04:05:34.227Z,23.14
2023-01-18T04:06:34.215Z,23.14
2023-01-18T04:07:34.213Z,23.15
2023-01-18T04:08:34.217Z,23.14
2023-01-18T04:09:34.211Z,23.15
2023-01-18T04:10:34.220Z,23.15
2023-01-18T04:11:34.220Z,23.14
2023-01-18T04:12:34.218Z,23.15
2023-01-18T04:13:34.211Z,23.15
2023-01-18T04:14:34.214Z,23.16
2023-01-18T04:15:34.221Z,23.15
2023-01-18T04:17:34.229Z,23.15
2023-01-18T12:28:35.507Z,23.35
2023-01-18T12:29:35.517Z,23.34
2023-01-18T12:30:35.723Z,23.35
2023-01-18T12:31:35.564Z,23.36
2023-01-18T12:32:35.522Z,23.36
2023-01-18T12:33:43.329Z,23.37
2023-01-18T12:35:35.525Z,23.37
2023-01-18T12:36:35.522Z,23.37
2023-01-18T12:37:35.538Z,23.39
2023-01-18T12:38:35.539Z,23.41
2023-01-18T12:39:35.535Z,23.42
2023-01-18T12:40:35.530Z,23.43
2023-01-18T12:41:35.520Z,23.45
2023-01-18T12:42:35.531Z,23.47
2023-01-18T12:43:35.535Z,23.47
2023-01-18T12:44:35.536Z,23.48
2023-01-18T12:45:35.547Z,23.49
2023-01-18T12:46:35.518Z,23.49
2023-01-18T12:47:35.521Z,23.50
2023-01-18T12:48:35.579Z,23.52
2023-01-18T12:49:35.530Z,23.52
2023-01-18T12:50:35.514Z,23.52
2023-01-18T12:51:35.542Z,23.53
2023-01-18T12:52:35.503Z,23.53
2023-01-18T12:53:35.518Z,23.53
2023-01-18T12:54:35.528Z,23.54
2023-01-18T12:55:35.544Z,23.54
2023-01-18T12:56:35.509Z,23.53
2023-01-18T12:57:35.506Z,23.54
2023-01-18T12:58:35.518Z,23.53
2023-01-18T12:59:35.521Z,23.53
2023-01-18T13:00:35.507Z,23.53
2023-01-18T13:01:35.625Z,23.54
2023-01-18T13:02:35.540Z,23.54
2023-01-18T13:03:35.487Z,23.54
2023-01-18T13:04:35.492Z,23.55
2023-01-18T13:05:35.575Z,23.55
2023-01-18T13:06:35.506Z,23.55
2023-01-18T13:07:35.551Z,23.56
2023-01-18T13:08:35.505Z,23.55
2023-01-18T13:09:35.493Z,23.55
2023-01-18T13:10:35.472Z,23.55
2023-01-18T13:11:35.475Z,23.56
2023-01-18T13:12:35.481Z,23.56
2023-01-18T13:13:35.484Z,23.57
2023-01-18T13:14:35.580Z,23.56
2023-01-18T13:15:35.526Z,23.56
2023-01-18T13:16:35.470Z,23.56
2023-01-18T13:18:35.479Z,23.56
2023-01-18T13:19:35.486Z,23.56
2023-01-18T13:20:35.522Z,23.56
2023-01-18T13:21:35.465Z,23.57
2023-01-18T13:22:35.481Z,23.58
2023-01-18T13:23:35.449Z,23.58
2023-01-18T13:24:35.450Z,23.58
2023-01-18T13:25:35.468Z,23.59
2023-01-18T13:26:35.454Z,23.59
2023-01-18T13:27:35.434Z,23.59
2023-01-18T13:28:35.443Z,23.58
2023-01-18T13:29:35.447Z,23.57
2023-01-18T13:31:35.423Z,23.59
2023-01-18T13:32:35.417Z,23.60
2023-01-18T13:33:35.403Z,23.60
2023-01-18T13:34:44.476Z,23.61
2023-01-18T13:36:35.396Z,23.61
2023-01-18T13:37:35.369Z,23.62
2023-01-18T13:38:41.383Z,23.62
2023-01-18T16:33:35.033Z,23.45
2023-01-18T16:34:35.026Z,23.44
2023-01-18T16:35:35.017Z,23.44
2023-01-18T16:36:42.249Z,23.44
2023-01-18T16:37:36.018Z,23.44
2023-01-18T16:38:35.009Z,23.44
2023-01-18T16:39:35.015Z,23.43
2023-01-18T16:40:35.016Z,23.44
2023-01-18T16:41:35.036Z,23.43
2023-01-18T16:42:38.581Z,23.44
2023-01-18T16:43:35.015Z,23.44
2023-01-18T16:44:35.045Z,23.44
2023-01-18T16:45:35.121Z,23.44
2023-01-18T16:46:35.023Z,23.43
2023-01-18T16:47:35.021Z,23.44
2023-01-18T16:48:35.026Z,23.44
2023-01-18T16:49:35.028Z,23.43
2023-01-18T16:50:35.038Z,23.43
2023-01-18T16:51:35.028Z,23.44
2023-01-18T16:52:35.034Z,23.43
2023-01-18T16:53:35.033Z,23.43
2023-01-18T16:54:35.035Z,23.42
2023-01-18T16:55:35.045Z,23.43
2023-01-18T16:56:35.041Z,23.43
2023-01-18T16:57:35.036Z,23.43
2023-01-18T16:58:35.038Z,23.43
2023-01-18T16:59:35.054Z,23.43
2023-01-18T17:00:35.042Z,23.43
2023-01-18T17:01:35.168Z,23.42
2023-01-18T17:02:35.091Z,23.43
2023-01-18T17:03:35.047Z,23.43
2023-01-18T17:04:35.069Z,23.43
2023-01-18T17:05:35.055Z,23.43
2023-01-18T17:06:35.059Z,23.42
2023-01-18T17:07:35.046Z,23.42
2023-01-18T17:08:35.059Z,23.43
2023-01-18T17:09:47.378Z,23.42
2023-01-18T17:10:36.054Z,23.41
2023-01-18T17:11:35.045Z,23.41
2023-01-18T17:12:35.066Z,23.41
2023-01-18T17:13:35.040Z,23.41
2023-01-18T17:14:35.040Z,23.41
2023-01-18T17:15:35.044Z,23.41
2023-01-18T17:16:35.103Z,23.42
2023-01-18T17:17:35.045Z,23.41
2023-01-18T17:18:35.050Z,23.42
2023-01-18T17:19:35.064Z,23.40
2023-01-18T17:20:35.101Z,23.40
2023-01-18T17:21:35.053Z,23.41
2023-01-18T17:22:35.052Z,23.41
2023-01-18T17:23:35.054Z,23.42
2023-01-18T17:24:35.050Z,23.41
2023-01-18T17:25:35.059Z,23.41
2023-01-18T17:26:35.039Z,23.40
2023-01-18T17:27:35.103Z,23.41
2023-01-18T17:28:35.056Z,23.41
2023-01-18T17:29:35.037Z,23.40
2023-01-18T17:30:35.069Z,23.40
2023-01-18T17:31:37.184Z,23.40
2023-01-18T17:32:35.057Z,23.40
2023-01-18T17:33:35.044Z,23.39
2023-01-18T17:34:35.044Z,23.39
2023-01-18T17:35:35.033Z,23.38
2023-01-18T17:36:35.047Z,23.39
2023-01-18T17:37:35.608Z,23.39
2023-01-18T17:38:35.107Z,23.39
2023-01-18T17:39:50.107Z,23.38
2023-01-18T17:40:41.700Z,23.38
2023-01-18T17:41:36.032Z,23.37
2023-01-18T17:42:35.005Z,23.38
2023-01-18T17:43:35.078Z,23.37
2023-01-18T17:44:37.338Z,23.38
2023-01-18T17:45:35.270Z,23.38
2023-01-18T17:46:35.288Z,23.38
2023-01-18T17:47:35.254Z,23.37
2023-01-18T17:48:35.262Z,23.38
2023-01-18T17:49:35.246Z,23.38
2023-01-18T17:50:35.258Z,23.38
2023-01-18T17:51:35.466Z,23.37
2023-01-18T17:52:35.241Z,23.37
2023-01-18T17:53:35.244Z,23.38
2023-01-18T17:54:35.247Z,23.37
2023-01-18T17:55:35.295Z,23.37
2023-01-18T17:56:35.235Z,23.38
2023-01-18T17:57:35.250Z,23.37
2023-01-18T17:58:35.237Z,23.38
2023-01-18T17:59:35.251Z,23.37
2023-01-18T18:00:35.250Z,23.37
2023-01-18T18:01:35.330Z,23.36
2023-01-18T18:02:35.275Z,23.37
2023-01-18T18:03:35.239Z,23.37
2023-01-18T18:04:35.253Z,23.37
2023-01-18T18:05:35.255Z,23.38
2023-01-18T18:06:38.207Z,23.37
2023-01-18T18:07:36.214Z,23.37
2023-01-18T18:08:35.228Z,23.37
2023-01-18T18:09:35.209Z,23.37
2023-01-18T18:10:35.219Z,23.37
2023-01-18T18:11:35.364Z,23.36
2023-01-18T18:12:35.229Z,23.37
2023-01-18T18:13:35.201Z,23.36
2023-01-18T18:14:35.199Z,23.37
2023-01-18T18:15:35.255Z,23.36
2023-01-18T18:16:42.831Z,23.37
2023-01-18T18:17:36.210Z,23.36
2023-01-18T18:18:35.202Z,23.36
2023-01-18T18:19:35.210Z,23.36
2023-01-18T18:20:35.212Z,23.36
2023-01-18T18:21:35.225Z,23.36
2023-01-18T18:22:35.214Z,23.36
2023-01-18T18:23:35.226Z,23.36
2023-01-18T18:24:35.198Z,23.36
2023-01-18T18:25:35.203Z,23.35
2023-01-18T18:26:35.229Z,23.35
2023-01-18T18:27:45.440Z,23.35
2023-01-18T18:28:36.209Z,23.35
2023-01-18T18:29:35.198Z,23.36
2023-01-18T18:30:35.191Z,23.35
2023-01-18T18:31:35.270Z,23.35
2023-01-18T18:32:35.219Z,23.35
2023-01-18T18:33:35.196Z,23.35
2023-01-18T18:34:35.202Z,23.35
2023-01-18T18:35:35.197Z,23.35
2023-01-18T18:36:35.235Z,23.35
2023-01-18T18:37:35.190Z,23.35
2023-01-18T18:38:35.211Z,23.34
2023-01-18T18:39:35.196Z,23.35
2023-01-18T18:40:35.207Z,23.35
2023-01-18T18:41:35.210Z,23.35
2023-01-18T18:42:35.229Z,23.35
2023-01-18T18:43:35.228Z,23.34
2023-01-18T18:44:35.198Z,23.35
2023-01-18T18:45:35.245Z,23.35
2023-01-18T18:46:35.261Z,23.35
2023-01-18T18:47:35.219Z,23.35
2023-01-18T18:48:35.250Z,23.35
2023-01-18T18:49:35.205Z,23.35
2023-01-18T18:50:35.222Z,23.34
2023-01-18T18:51:35.215Z,23.35
2023-01-18T18:52:35.219Z,23.34
2023-01-18T18:53:38.477Z,23.34
2023-01-18T18:54:35.204Z,23.34
2023-01-18T18:55:35.197Z,23.34
2023-01-18T18:56:35.207Z,23.35
2023-01-18T18:57:35.182Z,23.34
2023-01-18T18:58:35.175Z,23.35
2023-01-18T18:59:35.220Z,23.34
2023-01-18T19:00:35.177Z,23.34
2023-01-18T19:01:35.323Z,23.34
2023-01-18T19:02:35.247Z,23.34
2023-01-18T19:03:35.183Z,23.34
2023-01-18T19:04:35.199Z,23.34
2023-01-18T19:05:35.183Z,23.34
2023-01-18T19:06:35.191Z,23.34
2023-01-18T19:07:35.179Z,23.34
2023-01-18T19:08:35.167Z,23.34
2023-01-18T19:09:35.173Z,23.34
2023-01-18T19:10:35.187Z,23.33
2023-01-18T19:11:37.625Z,23.34
2023-01-18T19:12:35.159Z,23.33
2023-01-18T19:13:35.170Z,23.33
2023-01-18T19:14:35.171Z,23.34
2023-01-18T19:15:35.162Z,23.34
2023-01-18T19:16:35.214Z,23.33
2023-01-18T19:17:35.164Z,23.34
2023-01-18T19:18:35.166Z,23.34
2023-01-18T19:19:35.170Z,23.34
2023-01-18T19:20:35.162Z,23.34
2023-01-18T19:21:35.154Z,23.34
2023-01-18T19:22:35.152Z,23.34
2023-01-18T19:23:35.158Z,23.34
2023-01-18T19:24:35.149Z,23.34
2023-01-18T19:25:35.151Z,23.35
2023-01-18T19:26:35.162Z,23.34
2023-01-18T19:27:35.152Z,23.34
2023-01-18T19:28:35.161Z,23.34
2023-01-18T19:29:35.170Z,23.34
2023-01-18T19:30:35.155Z,23.34
2023-01-18T19:31:35.168Z,23.34
2023-01-18T19:32:35.165Z,23.34
2023-01-18T19:33:35.174Z,23.35
2023-01-18T19:34:35.158Z,23.34
2023-01-18T19:35:35.144Z,23.34
2023-01-18T19:36:35.145Z,23.34
2023-01-18T19:37:35.165Z,23.34
2023-01-18T19:38:38.754Z,23.34
2023-01-18T19:39:36.162Z,23.33
2023-01-18T19:40:35.142Z,23.33
2023-01-18T19:41:35.171Z,23.34
2023-01-18T19:42:35.148Z,23.33
2023-01-18T19:43:35.140Z,23.34
2023-01-18T19:44:35.141Z,23.33
2023-01-18T19:45:35.141Z,23.33
2023-01-18T19:46:35.154Z,23.34
2023-01-18T19:47:35.152Z,23.33
2023-01-18T19:48:35.156Z,23.33
2023-01-18T19:49:35.145Z,23.33
2023-01-18T19:50:35.140Z,23.33
2023-01-18T19:51:35.152Z,23.33
2023-01-18T19:52:35.144Z,23.34
2023-01-18T19:53:35.151Z,23.34
2023-01-18T19:54:35.156Z,23.34
2023-01-18T19:55:35.140Z,23.34
2023-01-18T19:56:35.143Z,23.33
2023-01-18T19:57:35.152Z,23.34
2023-01-18T19:58:35.152Z,23.34
2023-01-18T19:59:35.161Z,23.33
2023-01-18T20:00:35.212Z,23.34
2023-01-18T20:01:37.245Z,23.33
2023-01-18T20:02:35.549Z,23.33
2023-01-18T20:03:35.174Z,23.33
2023-01-18T20:04:35.160Z,23.34
2023-01-18T20:05:35.165Z,23.33
2023-01-18T20:06:35.169Z,23.32
2023-01-18T20:07:35.185Z,23.33
2023-01-18T20:08:35.178Z,23.32
2023-01-18T20:09:43.045Z,23.33
2023-01-18T20:10:36.172Z,23.32
2023-01-18T20:11:35.175Z,23.32
2023-01-18T20:12:35.188Z,23.33
2023-01-18T20:13:35.171Z,23.33
2023-01-18T20:14:41.176Z,23.32
2023-01-18T20:15:36.185Z,23.32
2023-01-18T20:16:35.201Z,23.32
2023-01-18T20:17:35.191Z,23.33
2023-01-18T20:18:35.174Z,23.33
2023-01-18T20:19:35.187Z,23.33
2023-01-18T20:20:35.166Z,23.33
2023-01-18T20:21:35.178Z,23.33
2023-01-18T20:22:35.173Z,23.32
2023-01-18T20:23:35.171Z,23.33
2023-01-18T20:24:35.182Z,23.33
2023-01-18T20:25:35.170Z,23.33
2023-01-18T20:26:37.421Z,23.33
2023-01-18T20:27:35.168Z,23.32
2023-01-18T20:28:35.146Z,23.32
2023-01-18T20:29:35.145Z,23.33
2023-01-18T20:30:35.154Z,23.32
2023-01-18T20:31:35.179Z,23.32
2023-01-18T20:32:35.267Z,23.33
2023-01-18T20:33:35.136Z,23.33
2023-01-18T20:34:35.142Z,23.32
2023-01-18T20:35:35.223Z,23.33
2023-01-18T20:36:35.141Z,23.33
2023-01-18T20:37:35.192Z,23.33
2023-01-18T20:38:35.138Z,23.32
2023-01-18T20:39:35.145Z,23.32
2023-01-18T20:40:35.136Z,23.32
2023-01-18T20:41:35.138Z,23.33
2023-01-18T20:42:35.129Z,23.32
2023-01-18T20:43:35.154Z,23.33
2023-01-18T20:44:35.128Z,23.33
2023-01-18T20:45:35.179Z,23.33
2023-01-18T20:46:35.122Z,23.33
2023-01-18T20:47:35.129Z,23.33
2023-01-18T20:48:35.134Z,23.33
2023-01-18T20:49:39.115Z,23.34
2023-01-18T20:50:35.131Z,23.32
2023-01-18T20:51:35.226Z,23.32
2023-01-18T20:52:35.120Z,23.33
2023-01-18T20:53:35.118Z,23.32
2023-01-18T20:54:36.261Z,23.32
2023-01-18T20:55:35.108Z,23.32
2023-01-18T20:56:35.103Z,23.33
2023-01-18T20:57:35.112Z,23.33
2023-01-18T20:58:35.123Z,23.32
2023-01-18T20:59:35.138Z,23.33
2023-01-18T21:00:35.104Z,23.33
2023-01-18T21:01:35.324Z,23.32
2023-01-18T21:02:35.132Z,23.32
2023-01-18T21:03:35.113Z,23.33
2023-01-18T21:04:35.099Z,23.32
2023-01-18T21:05:35.115Z,23.31
2023-01-18T21:06:35.101Z,23.32
2023-01-18T21:07:35.113Z,23.32
2023-01-18T21:08:35.102Z,23.32
2023-01-18T21:09:35.099Z,23.31
2023-01-18T21:10:35.091Z,23.32
2023-01-18T21:11:35.095Z,23.32
2023-01-18T21:12:35.112Z,23.32
2023-01-18T21:13:35.116Z,23.32
2023-01-18T21:14:35.121Z,23.32
2023-01-18T21:15:35.116Z,23.32
2023-01-18T21:16:35.132Z,23.32
2023-01-18T21:17:35.108Z,23.32
2023-01-18T21:18:35.111Z,23.32
2023-01-18T21:19:35.105Z,23.32
2023-01-18T21:20:35.124Z,23.32
2023-01-18T21:21:35.103Z,23.33
2023-01-18T21:22:35.107Z,23.32
2023-01-18T21:23:35.115Z,23.33
2023-01-18T21:24:35.109Z,23.33
2023-01-18T21:25:35.119Z,23.32
2023-01-18T21:26:35.121Z,23.33
2023-01-18T21:27:35.124Z,23.33
2023-01-18T21:28:35.110Z,23.33
2023-01-18T21:29:35.109Z,23.33
2023-01-18T21:30:35.119Z,23.33
2023-01-18T21:31:35.131Z,23.33
2023-01-18T21:32:35.137Z,23.33
2023-01-18T21:33:35.151Z,23.33
2023-01-18T21:34:35.114Z,23.33
2023-01-18T21:35:35.124Z,23.32
2023-01-18T21:36:35.122Z,23.33
2023-01-18T21:37:35.102Z,23.33
2023-01-18T21:38:35.103Z,23.33
2023-01-18T21:39:35.136Z,23.32
2023-01-18T21:40:35.105Z,23.33
2023-01-18T21:41:35.097Z,23.33
2023-01-18T21:42:35.098Z,23.33
2023-01-18T21:43:35.081Z,23.33
2023-01-18T21:44:35.080Z,23.33
2023-01-18T21:45:35.112Z,23.33
2023-01-18T21:46:35.080Z,23.33
2023-01-18T21:47:35.087Z,23.33
2023-01-18T21:48:35.072Z,23.32
2023-01-18T21:49:51.967Z,23.33
2023-01-18T21:50:36.076Z,23.32
2023-01-18T21:51:35.081Z,23.33
2023-01-18T21:52:35.073Z,23.32
2023-01-18T21:53:35.054Z,23.32
2023-01-18T21:54:35.061Z,23.32
2023-01-18T21:55:35.067Z,23.32
2023-01-18T21:56:35.058Z,23.32
2023-01-18T21:57:35.057Z,23.32
2023-01-18T21:58:35.055Z,23.33
2023-01-18T21:59:35.079Z,23.32
2023-01-18T22:00:35.043Z,23.32
2023-01-18T22:01:35.128Z,23.33
2023-01-18T22:02:35.126Z,23.33
2023-01-18T22:03:35.047Z,23.32
2023-01-18T22:04:35.056Z,23.32
2023-01-18T22:05:35.071Z,23.33
2023-01-18T22:06:35.051Z,23.32
2023-01-18T22:07:35.065Z,23.33
2023-01-18T22:08:35.051Z,23.32
2023-01-18T22:09:35.062Z,23.33
2023-01-18T22:10:35.044Z,23.33
2023-01-18T22:11:35.148Z,23.33
2023-01-18T22:12:36.034Z,23.33
2023-01-18T22:13:35.049Z,23.32
2023-01-18T22:14:35.057Z,23.33
2023-01-18T22:15:35.064Z,23.33
2023-01-18T22:16:35.152Z,23.33
2023-01-18T22:17:35.063Z,23.33
2023-01-18T22:18:35.052Z,23.33
2023-01-18T22:19:35.064Z,23.33
2023-01-18T22:20:35.054Z,23.33
2023-01-18T22:21:35.056Z,23.33
2023-01-18T22:22:35.071Z,23.33
2023-01-18T22:23:35.044Z,23.33
2023-01-18T22:24:35.063Z,23.33
2023-01-18T22:25:35.052Z,23.33
2023-01-18T22:26:36.417Z,23.33
2023-01-18T22:27:35.046Z,23.33
2023-01-18T22:28:35.039Z,23.33
2023-01-18T22:29:35.046Z,23.33
2023-01-18T22:30:35.091Z,23.33
2023-01-18T22:31:35.029Z,23.33
2023-01-18T22:32:35.039Z,23.33
2023-01-18T22:33:35.041Z,23.33
2023-01-18T22:34:35.051Z,23.33
2023-01-18T22:35:35.025Z,23.34
2023-01-18T22:36:35.026Z,23.33
2023-01-18T22:37:35.019Z,23.33
2023-01-18T22:38:34.997Z,23.33
2023-01-18T22:39:35.024Z,23.33
2023-01-18T22:40:34.992Z,23.33
2023-01-18T22:41:34.989Z,23.33
2023-01-18T22:42:34.968Z,23.33
2023-01-18T22:43:35.010Z,23.33
2023-01-18T22:44:34.971Z,23.32
2023-01-18T22:45:34.975Z,23.33
2023-01-18T22:46:34.957Z,23.33
2023-01-18T22:47:34.932Z,23.33
2023-01-18T22:48:34.929Z,23.33
2023-01-18T22:49:34.933Z,23.32
2023-01-18T22:50:34.948Z,23.33
2023-01-18T22:51:34.935Z,23.33
2023-01-18T22:52:34.920Z,23.33
2023-01-18T22:53:34.922Z,23.33
2023-01-18T22:54:34.904Z,23.33
2023-01-18T22:55:34.906Z,23.33
2023-01-18T22:56:34.909Z,23.32
2023-01-18T22:57:34.885Z,23.33
2023-01-18T22:58:34.885Z,23.32
2023-01-18T22:59:34.888Z,23.32
2023-01-18T23:00:34.869Z,23.33
2023-01-18T23:01:34.865Z,23.33
2023-01-18T23:02:34.888Z,23.33
2023-01-18T23:03:34.934Z,23.33
2023-01-18T23:04:34.859Z,23.33
2023-01-18T23:05:34.856Z,23.33
2023-01-18T23:06:34.864Z,23.33
2023-01-18T23:07:34.844Z,23.33
2023-01-18T23:08:34.847Z,23.33
2023-01-18T23:09:34.832Z,23.33
2023-01-18T23:10:34.871Z,23.33
2023-01-18T23:11:34.838Z,23.33
2023-01-18T23:12:34.838Z,23.33
2023-01-18T23:13:34.852Z,23.33
2023-01-18T23:14:34.824Z,23.33
2023-01-18T23:15:34.961Z,23.33
2023-01-18T23:16:34.830Z,23.33
2023-01-18T23:17:34.824Z,23.33
2023-01-18T23:18:34.815Z,23.33
2023-01-18T23:19:34.826Z,23.33
2023-01-18T23:20:34.832Z,23.34
2023-01-18T23:21:34.824Z,23.34
2023-01-18T23:22:34.804Z,23.34
2023-01-18T23:23:34.808Z,23.34
2023-01-18T23:24:34.820Z,23.34
2023-01-18T23:25:34.817Z,23.34
2023-01-18T23:26:34.800Z,23.34
2023-01-18T23:27:34.793Z,23.35
2023-01-18T23:28:34.807Z,23.34
2023-01-18T23:29:34.791Z,23.35
2023-01-18T23:30:34.780Z,23.34
2023-01-18T23:31:34.795Z,23.35
2023-01-18T23:32:34.787Z,23.35
2023-01-18T23:33:34.778Z,23.35
2023-01-18T23:34:34.785Z,23.35
2023-01-18T23:35:34.853Z,23.35
2023-01-18T23:36:34.757Z,23.36
2023-01-18T23:37:34.756Z,23.35
2023-01-18T23:38:34.774Z,23.36
2023-01-18T23:39:34.762Z,23.36
2023-01-18T23:40:34.813Z,23.35
2023-01-18T23:41:34.750Z,23.35
2023-01-18T23:42:34.755Z,23.36
2023-01-18T23:43:34.765Z,23.36
2023-01-18T23:44:34.746Z,23.36
2023-01-18T23:45:34.735Z,23.36
2023-01-18T23:46:34.838Z,23.35
2023-01-18T23:47:34.749Z,23.36
2023-01-18T23:48:34.763Z,23.36
2023-01-18T23:49:34.733Z,23.37
2023-01-18T23:50:34.746Z,23.37
2023-01-18T23:51:34.759Z,23.37
2023-01-18T23:52:34.732Z,23.36
2023-01-18T23:53:34.734Z,23.36
2023-01-18T23:54:34.726Z,23.37
2023-01-18T23:55:34.741Z,23.36
2023-01-18T23:56:34.749Z,23.37
2023-01-18T23:57:34.751Z,23.38
2023-01-18T23:58:34.742Z,23.38
2023-01-18T23:59:34.740Z,23.37
